sensor_id;sensor_type;location;lat;lon;timestamp;P1;durP1;ratioP1;P2;durP2;ratioP2
44728;SDS011;30457;53.590;9.922;2024-01-30T00:02:23;9.18;;;5.97;;
44728;SDS011;30457;53.590;9.922;2024-01-30T00:06:48;10.52;;;5.95;;
44728;SDS011;30457;53.590;9.922;2024-01-30T00:11:15;9.32;;;5.85;;
44728;SDS011;30457;53.590;9.922;2024-01-30T00:15:41;10.10;;;6.18;;
44728;SDS011;30457;53.590;9.922;2024-01-30T00:20:07;9.05;;;5.50;;
44728;SDS011;30457;53.590;9.922;2024-01-30T00:24:34;8.25;;;5.35;;
44728;SDS011;30457;53.590;9.922;2024-01-30T00:28:59;11.10;;;6.20;;
44728;SDS011;30457;53.590;9.922;2024-01-30T00:33:25;7.97;;;5.75;;
44728;SDS011;30457;53.590;9.922;2024-01-30T00:37:50;7.57;;;5.35;;
44728;SDS011;30457;53.590;9.922;2024-01-30T00:42:16;8.40;;;5.30;;
44728;SDS011;30457;53.590;9.922;2024-01-30T00:46:41;10.68;;;5.68;;
44728;SDS011;30457;53.590;9.922;2024-01-30T00:51:07;9.05;;;5.53;;
44728;SDS011;30457;53.590;9.922;2024-01-30T00:55:33;11.10;;;5.35;;
44728;SDS011;30457;53.590;9.922;2024-01-30T00:59:58;11.30;;;6.20;;
44728;SDS011;30457;53.590;9.922;2024-01-30T01:04:24;7.50;;;5.28;;
44728;SDS011;30457;53.590;9.922;2024-01-30T01:08:49;8.18;;;6.00;;
44728;SDS011;30457;53.590;9.922;2024-01-30T01:13:15;12.60;;;6.53;;
44728;SDS011;30457;53.590;9.922;2024-01-30T01:17:40;9.45;;;5.65;;
44728;SDS011;30457;53.590;9.922;2024-01-30T01:22:06;8.07;;;5.75;;
44728;SDS011;30457;53.590;9.922;2024-01-30T01:26:32;10.30;;;5.82;;
44728;SDS011;30457;53.590;9.922;2024-01-30T01:30:57;9.68;;;5.75;;
44728;SDS011;30457;53.590;9.922;2024-01-30T01:35:30;9.27;;;5.80;;
44728;SDS011;30457;53.590;9.922;2024-01-30T01:39:55;12.60;;;6.25;;
44728;SDS011;30457;53.590;9.922;2024-01-30T01:44:21;9.73;;;5.57;;
44728;SDS011;30457;53.590;9.922;2024-01-30T01:48:46;9.52;;;5.70;;
44728;SDS011;30457;53.590;9.922;2024-01-30T01:53:12;8.90;;;6.03;;
44728;SDS011;30457;53.590;9.922;2024-01-30T01:57:38;13.93;;;5.95;;
44728;SDS011;30457;53.590;9.922;2024-01-30T02:02:04;9.93;;;6.95;;
44728;SDS011;30457;53.590;9.922;2024-01-30T02:06:33;9.70;;;5.97;;
44728;SDS011;30457;53.590;9.922;2024-01-30T02:11:00;9.95;;;5.93;;
44728;SDS011;30457;53.590;9.922;2024-01-30T02:15:26;10.02;;;5.80;;
44728;SDS011;30457;53.590;9.922;2024-01-30T02:19:52;7.60;;;5.38;;
44728;SDS011;30457;53.590;9.922;2024-01-30T02:24:17;7.00;;;4.88;;
44728;SDS011;30457;53.590;9.922;2024-01-30T02:28:43;8.68;;;5.60;;
44728;SDS011;30457;53.590;9.922;2024-01-30T02:33:09;14.55;;;5.95;;
44728;SDS011;30457;53.590;9.922;2024-01-30T02:37:34;8.35;;;5.05;;
44728;SDS011;30457;53.590;9.922;2024-01-30T02:42:00;8.13;;;5.05;;
44728;SDS011;30457;53.590;9.922;2024-01-30T02:46:25;8.38;;;5.38;;
44728;SDS011;30457;53.590;9.922;2024-01-30T02:50:51;6.40;;;4.38;;
44728;SDS011;30457;53.590;9.922;2024-01-30T02:55:16;6.97;;;5.00;;
44728;SDS011;30457;53.590;9.922;2024-01-30T02:59:45;7.55;;;4.85;;
44728;SDS011;30457;53.590;9.922;2024-01-30T03:04:10;8.70;;;5.50;;
44728;SDS011;30457;53.590;9.922;2024-01-30T03:08:36;8.35;;;4.93;;
44728;SDS011;30457;53.590;9.922;2024-01-30T03:13:02;7.82;;;5.50;;
44728;SDS011;30457;53.590;9.922;2024-01-30T03:17:28;6.70;;;4.47;;
44728;SDS011;30457;53.590;9.922;2024-01-30T03:21:53;5.80;;;4.70;;
44728;SDS011;30457;53.590;9.922;2024-01-30T03:26:19;7.53;;;4.85;;
44728;SDS011;30457;53.590;9.922;2024-01-30T03:30:44;6.03;;;4.20;;
44728;SDS011;30457;53.590;9.922;2024-01-30T03:35:10;11.60;;;5.05;;
44728;SDS011;30457;53.590;9.922;2024-01-30T03:39:36;11.07;;;5.60;;
44728;SDS011;30457;53.590;9.922;2024-01-30T03:44:01;7.22;;;4.70;;
44728;SDS011;30457;53.590;9.922;2024-01-30T03:48:27;9.32;;;4.90;;
44728;SDS011;30457;53.590;9.922;2024-01-30T03:52:53;8.63;;;4.50;;
44728;SDS011;30457;53.590;9.922;2024-01-30T03:57:19;6.85;;;4.72;;
44728;SDS011;30457;53.590;9.922;2024-01-30T04:01:46;6.85;;;5.25;;
44728;SDS011;30457;53.590;9.922;2024-01-30T04:06:11;5.78;;;4.70;;
44728;SDS011;30457;53.590;9.922;2024-01-30T04:10:37;7.88;;;5.45;;
44728;SDS011;30457;53.590;9.922;2024-01-30T04:15:03;7.07;;;4.75;;
44728;SDS011;30457;53.590;9.922;2024-01-30T04:19:29;8.40;;;5.05;;
44728;SDS011;30457;53.590;9.922;2024-01-30T04:23:54;7.07;;;4.70;;
44728;SDS011;30457;53.590;9.922;2024-01-30T04:28:20;10.20;;;5.75;;
44728;SDS011;30457;53.590;9.922;2024-01-30T04:32:45;6.85;;;5.00;;
44728;SDS011;30457;53.590;9.922;2024-01-30T04:37:11;11.85;;;6.13;;
44728;SDS011;30457;53.590;9.922;2024-01-30T04:41:36;10.05;;;6.97;;
44728;SDS011;30457;53.590;9.922;2024-01-30T04:46:02;8.23;;;5.03;;
44728;SDS011;30457;53.590;9.922;2024-01-30T04:50:27;8.73;;;5.30;;
44728;SDS011;30457;53.590;9.922;2024-01-30T04:54:53;7.15;;;4.90;;
44728;SDS011;30457;53.590;9.922;2024-01-30T04:59:19;9.75;;;5.53;;
44728;SDS011;30457;53.590;9.922;2024-01-30T05:03:44;8.05;;;5.45;;
44728;SDS011;30457;53.590;9.922;2024-01-30T05:08:10;8.52;;;5.05;;
44728;SDS011;30457;53.590;9.922;2024-01-30T05:12:36;7.78;;;5.63;;
44728;SDS011;30457;53.590;9.922;2024-01-30T05:17:01;8.77;;;5.38;;
44728;SDS011;30457;53.590;9.922;2024-01-30T05:21:28;8.38;;;5.65;;
44728;SDS011;30457;53.590;9.922;2024-01-30T05:25:53;9.55;;;4.95;;
44728;SDS011;30457;53.590;9.922;2024-01-30T05:30:19;9.45;;;5.93;;
44728;SDS011;30457;53.590;9.922;2024-01-30T05:34:45;8.52;;;5.93;;
44728;SDS011;30457;53.590;9.922;2024-01-30T05:39:10;9.10;;;5.70;;
44728;SDS011;30457;53.590;9.922;2024-01-30T05:43:36;10.48;;;5.45;;
44728;SDS011;30457;53.590;9.922;2024-01-30T05:48:01;9.05;;;5.28;;
44728;SDS011;30457;53.590;9.922;2024-01-30T05:52:27;8.60;;;5.45;;
44728;SDS011;30457;53.590;9.922;2024-01-30T05:56:53;11.13;;;5.60;;
44728;SDS011;30457;53.590;9.922;2024-01-30T06:01:18;11.00;;;5.63;;
44728;SDS011;30457;53.590;9.922;2024-01-30T06:05:44;7.80;;;6.10;;
44728;SDS011;30457;53.590;9.922;2024-01-30T06:10:09;8.82;;;5.65;;
44728;SDS011;30457;53.590;9.922;2024-01-30T06:14:36;8.80;;;5.60;;
44728;SDS011;30457;53.590;9.922;2024-01-30T06:19:02;9.77;;;5.97;;
44728;SDS011;30457;53.590;9.922;2024-01-30T06:23:27;9.50;;;6.30;;
44728;SDS011;30457;53.590;9.922;2024-01-30T06:27:53;9.82;;;6.05;;
44728;SDS011;30457;53.590;9.922;2024-01-30T06:32:18;8.48;;;6.15;;
44728;SDS011;30457;53.590;9.922;2024-01-30T06:36:44;11.45;;;7.25;;
44728;SDS011;30457;53.590;9.922;2024-01-30T06:41:09;9.77;;;6.38;;
44728;SDS011;30457;53.590;9.922;2024-01-30T06:45:35;13.63;;;6.82;;
44728;SDS011;30457;53.590;9.922;2024-01-30T06:50:01;9.05;;;6.07;;
44728;SDS011;30457;53.590;9.922;2024-01-30T06:54:28;12.68;;;6.47;;
44728;SDS011;30457;53.590;9.922;2024-01-30T06:58:54;11.50;;;7.00;;
44728;SDS011;30457;53.590;9.922;2024-01-30T07:03:19;11.30;;;6.68;;
44728;SDS011;30457;53.590;9.922;2024-01-30T07:07:45;8.38;;;5.90;;
44728;SDS011;30457;53.590;9.922;2024-01-30T07:12:10;10.38;;;7.00;;
44728;SDS011;30457;53.590;9.922;2024-01-30T07:16:36;10.27;;;6.15;;
44728;SDS011;30457;53.590;9.922;2024-01-30T07:21:01;8.93;;;5.78;;
44728;SDS011;30457;53.590;9.922;2024-01-30T07:25:27;9.52;;;6.50;;
44728;SDS011;30457;53.590;9.922;2024-01-30T07:29:54;12.05;;;6.57;;
44728;SDS011;30457;53.590;9.922;2024-01-30T07:34:20;9.95;;;6.55;;
44728;SDS011;30457;53.590;9.922;2024-01-30T07:38:46;8.32;;;6.50;;
44728;SDS011;30457;53.590;9.922;2024-01-30T07:43:11;14.18;;;6.82;;
44728;SDS011;30457;53.590;9.922;2024-01-30T07:47:37;10.05;;;6.82;;
44728;SDS011;30457;53.590;9.922;2024-01-30T07:52:03;11.02;;;6.40;;
44728;SDS011;30457;53.590;9.922;2024-01-30T07:56:28;10.43;;;6.55;;
44728;SDS011;30457;53.590;9.922;2024-01-30T08:00:54;10.77;;;7.35;;
44728;SDS011;30457;53.590;9.922;2024-01-30T08:05:22;10.35;;;6.43;;
44728;SDS011;30457;53.590;9.922;2024-01-30T08:09:48;10.45;;;6.93;;
44728;SDS011;30457;53.590;9.922;2024-01-30T08:14:13;10.75;;;6.57;;
44728;SDS011;30457;53.590;9.922;2024-01-30T08:18:39;9.43;;;7.28;;
44728;SDS011;30457;53.590;9.922;2024-01-30T08:23:08;11.23;;;7.22;;
44728;SDS011;30457;53.590;9.922;2024-01-30T08:27:34;13.98;;;7.25;;
44728;SDS011;30457;53.590;9.922;2024-01-30T08:32:00;10.75;;;6.72;;
44728;SDS011;30457;53.590;9.922;2024-01-30T08:36:28;10.82;;;7.00;;
44728;SDS011;30457;53.590;9.922;2024-01-30T08:40:54;12.18;;;8.48;;
44728;SDS011;30457;53.590;9.922;2024-01-30T08:45:23;13.27;;;7.65;;
44728;SDS011;30457;53.590;9.922;2024-01-30T08:49:48;13.05;;;7.38;;
44728;SDS011;30457;53.590;9.922;2024-01-30T08:54:14;9.55;;;6.78;;
44728;SDS011;30457;53.590;9.922;2024-01-30T08:58:39;16.02;;;7.88;;
44728;SDS011;30457;53.590;9.922;2024-01-30T09:03:05;12.85;;;7.45;;
44728;SDS011;30457;53.590;9.922;2024-01-30T09:07:31;18.20;;;9.15;;
44728;SDS011;30457;53.590;9.922;2024-01-30T09:11:56;17.15;;;7.60;;
44728;SDS011;30457;53.590;9.922;2024-01-30T09:16:27;9.93;;;6.80;;
44728;SDS011;30457;53.590;9.922;2024-01-30T09:20:53;10.40;;;6.90;;
44728;SDS011;30457;53.590;9.922;2024-01-30T09:25:19;9.50;;;6.35;;
44728;SDS011;30457;53.590;9.922;2024-01-30T09:29:44;13.07;;;8.02;;
44728;SDS011;30457;53.590;9.922;2024-01-30T09:34:10;13.02;;;6.93;;
44728;SDS011;30457;53.590;9.922;2024-01-30T09:38:35;11.65;;;7.63;;
44728;SDS011;30457;53.590;9.922;2024-01-30T09:43:01;11.90;;;8.23;;
44728;SDS011;30457;53.590;9.922;2024-01-30T09:47:27;12.13;;;7.05;;
44728;SDS011;30457;53.590;9.922;2024-01-30T09:51:52;11.90;;;7.72;;
44728;SDS011;30457;53.590;9.922;2024-01-30T09:56:18;13.40;;;7.68;;
44728;SDS011;30457;53.590;9.922;2024-01-30T10:00:44;10.80;;;7.20;;
44728;SDS011;30457;53.590;9.922;2024-01-30T10:05:10;10.63;;;7.05;;
44728;SDS011;30457;53.590;9.922;2024-01-30T10:09:40;12.30;;;8.27;;
44728;SDS011;30457;53.590;9.922;2024-01-30T10:14:05;14.63;;;8.68;;
44728;SDS011;30457;53.590;9.922;2024-01-30T10:18:31;10.60;;;7.70;;
44728;SDS011;30457;53.590;9.922;2024-01-30T10:22:56;14.68;;;8.27;;
44728;SDS011;30457;53.590;9.922;2024-01-30T10:27:26;11.27;;;8.20;;
44728;SDS011;30457;53.590;9.922;2024-01-30T10:31:58;16.90;;;8.68;;
44728;SDS011;30457;53.590;9.922;2024-01-30T10:36:28;16.27;;;8.45;;
44728;SDS011;30457;53.590;9.922;2024-01-30T10:40:58;12.45;;;7.90;;
44728;SDS011;30457;53.590;9.922;2024-01-30T10:45:27;14.80;;;8.30;;
44728;SDS011;30457;53.590;9.922;2024-01-30T10:49:54;15.40;;;8.45;;
44728;SDS011;30457;53.590;9.922;2024-01-30T10:54:20;11.75;;;7.07;;
44728;SDS011;30457;53.590;9.922;2024-01-30T10:58:50;10.55;;;8.00;;
44728;SDS011;30457;53.590;9.922;2024-01-30T11:03:20;19.92;;;7.72;;
44728;SDS011;30457;53.590;9.922;2024-01-30T11:07:46;16.85;;;9.00;;
44728;SDS011;30457;53.590;9.922;2024-01-30T11:12:12;11.27;;;7.32;;
44728;SDS011;30457;53.590;9.922;2024-01-30T11:16:37;11.02;;;7.35;;
44728;SDS011;30457;53.590;9.922;2024-01-30T11:21:05;11.70;;;7.60;;
44728;SDS011;30457;53.590;9.922;2024-01-30T11:25:30;13.40;;;8.25;;
44728;SDS011;30457;53.590;9.922;2024-01-30T11:30:03;16.60;;;7.55;;
44728;SDS011;30457;53.590;9.922;2024-01-30T11:34:30;11.95;;;7.88;;
44728;SDS011;30457;53.590;9.922;2024-01-30T11:38:57;9.38;;;7.10;;
44728;SDS011;30457;53.590;9.922;2024-01-30T11:43:23;11.60;;;6.85;;
44728;SDS011;30457;53.590;9.922;2024-01-30T11:47:48;10.20;;;6.35;;
44728;SDS011;30457;53.590;9.922;2024-01-30T11:52:14;8.38;;;6.35;;
44728;SDS011;30457;53.590;9.922;2024-01-30T11:56:40;8.68;;;5.47;;
44728;SDS011;30457;53.590;9.922;2024-01-30T12:01:08;9.77;;;5.50;;
44728;SDS011;30457;53.590;9.922;2024-01-30T12:05:33;9.73;;;5.57;;
44728;SDS011;30457;53.590;9.922;2024-01-30T12:09:59;8.20;;;5.10;;
44728;SDS011;30457;53.590;9.922;2024-01-30T12:14:25;7.95;;;5.70;;
44728;SDS011;30457;53.590;9.922;2024-01-30T12:18:59;7.68;;;5.70;;
44728;SDS011;30457;53.590;9.922;2024-01-30T12:23:26;11.23;;;5.93;;
44728;SDS011;30457;53.590;9.922;2024-01-30T12:27:53;9.05;;;5.90;;
44728;SDS011;30457;53.590;9.922;2024-01-30T12:32:19;10.30;;;6.15;;
44728;SDS011;30457;53.590;9.922;2024-01-30T12:36:44;10.00;;;5.60;;
44728;SDS011;30457;53.590;9.922;2024-01-30T12:41:10;13.02;;;5.90;;
44728;SDS011;30457;53.590;9.922;2024-01-30T12:45:36;9.80;;;5.75;;
44728;SDS011;30457;53.590;9.922;2024-01-30T12:50:02;9.23;;;5.60;;
44728;SDS011;30457;53.590;9.922;2024-01-30T12:54:28;9.00;;;5.30;;
44728;SDS011;30457;53.590;9.922;2024-01-30T12:58:53;7.75;;;5.50;;
44728;SDS011;30457;53.590;9.922;2024-01-30T13:03:19;9.93;;;5.22;;
44728;SDS011;30457;53.590;9.922;2024-01-30T13:07:44;11.35;;;6.28;;
44728;SDS011;30457;53.590;9.922;2024-01-30T13:12:10;11.98;;;6.00;;
44728;SDS011;30457;53.590;9.922;2024-01-30T13:16:36;8.77;;;5.13;;
44728;SDS011;30457;53.590;9.922;2024-01-30T13:21:02;7.90;;;5.95;;
44728;SDS011;30457;53.590;9.922;2024-01-30T13:25:27;8.70;;;5.43;;
44728;SDS011;30457;53.590;9.922;2024-01-30T13:29:53;8.45;;;5.97;;
44728;SDS011;30457;53.590;9.922;2024-01-30T13:34:19;8.70;;;6.03;;
44728;SDS011;30457;53.590;9.922;2024-01-30T13:38:44;10.05;;;5.35;;
44728;SDS011;30457;53.590;9.922;2024-01-30T13:43:10;11.15;;;5.75;;
44728;SDS011;30457;53.590;9.922;2024-01-30T13:47:36;11.20;;;6.90;;
44728;SDS011;30457;53.590;9.922;2024-01-30T13:52:01;9.55;;;5.40;;
44728;SDS011;30457;53.590;9.922;2024-01-30T13:56:28;7.47;;;5.07;;
44728;SDS011;30457;53.590;9.922;2024-01-30T14:00:55;9.23;;;5.05;;
44728;SDS011;30457;53.590;9.922;2024-01-30T14:05:20;8.55;;;5.68;;
44728;SDS011;30457;53.590;9.922;2024-01-30T14:09:47;6.80;;;5.03;;
44728;SDS011;30457;53.590;9.922;2024-01-30T14:14:13;11.60;;;6.13;;
44728;SDS011;30457;53.590;9.922;2024-01-30T14:18:39;9.00;;;5.82;;
44728;SDS011;30457;53.590;9.922;2024-01-30T14:23:06;10.13;;;6.35;;
44728;SDS011;30457;53.590;9.922;2024-01-30T14:27:32;8.63;;;4.95;;
44728;SDS011;30457;53.590;9.922;2024-01-30T14:31:57;9.13;;;5.47;;
44728;SDS011;30457;53.590;9.922;2024-01-30T14:36:23;8.40;;;5.55;;
44728;SDS011;30457;53.590;9.922;2024-01-30T14:40:52;11.13;;;6.03;;
44728;SDS011;30457;53.590;9.922;2024-01-30T14:45:18;11.27;;;5.38;;
44728;SDS011;30457;53.590;9.922;2024-01-30T14:49:44;7.63;;;4.85;;
44728;SDS011;30457;53.590;9.922;2024-01-30T14:54:09;7.70;;;4.95;;
44728;SDS011;30457;53.590;9.922;2024-01-30T14:58:36;12.85;;;5.78;;
44728;SDS011;30457;53.590;9.922;2024-01-30T15:03:02;12.13;;;5.32;;
44728;SDS011;30457;53.590;9.922;2024-01-30T15:07:28;9.05;;;5.05;;
44728;SDS011;30457;53.590;9.922;2024-01-30T15:11:54;11.45;;;5.38;;
44728;SDS011;30457;53.590;9.922;2024-01-30T15:16:19;10.32;;;5.60;;
44728;SDS011;30457;53.590;9.922;2024-01-30T15:20:45;9.05;;;4.78;;
44728;SDS011;30457;53.590;9.922;2024-01-30T15:25:10;10.63;;;6.03;;
44728;SDS011;30457;53.590;9.922;2024-01-30T15:29:36;7.18;;;5.40;;
44728;SDS011;30457;53.590;9.922;2024-01-30T15:34:01;10.32;;;5.07;;
44728;SDS011;30457;53.590;9.922;2024-01-30T15:38:27;8.70;;;5.40;;
44728;SDS011;30457;53.590;9.922;2024-01-30T15:42:53;7.80;;;5.35;;
44728;SDS011;30457;53.590;9.922;2024-01-30T15:47:19;10.20;;;5.32;;
44728;SDS011;30457;53.590;9.922;2024-01-30T15:51:45;8.93;;;5.20;;
44728;SDS011;30457;53.590;9.922;2024-01-30T15:56:10;10.50;;;6.20;;
44728;SDS011;30457;53.590;9.922;2024-01-30T16:00:36;9.18;;;5.15;;
44728;SDS011;30457;53.590;9.922;2024-01-30T16:05:02;8.25;;;5.43;;
44728;SDS011;30457;53.590;9.922;2024-01-30T16:09:27;6.55;;;5.05;;
44728;SDS011;30457;53.590;9.922;2024-01-30T16:13:53;10.30;;;5.68;;
44728;SDS011;30457;53.590;9.922;2024-01-30T16:18:18;8.38;;;5.85;;
44728;SDS011;30457;53.590;9.922;2024-01-30T16:22:44;9.57;;;4.95;;
44728;SDS011;30457;53.590;9.922;2024-01-30T16:27:10;12.45;;;6.15;;
44728;SDS011;30457;53.590;9.922;2024-01-30T16:31:35;12.18;;;7.28;;
44728;SDS011;30457;53.590;9.922;2024-01-30T16:36:01;14.60;;;6.20;;
44728;SDS011;30457;53.590;9.922;2024-01-30T16:40:27;11.68;;;6.10;;
44728;SDS011;30457;53.590;9.922;2024-01-30T16:44:52;8.40;;;5.10;;
44728;SDS011;30457;53.590;9.922;2024-01-30T16:49:18;8.05;;;5.60;;
44728;SDS011;30457;53.590;9.922;2024-01-30T16:53:43;10.23;;;6.13;;
44728;SDS011;30457;53.590;9.922;2024-01-30T16:58:09;13.73;;;5.90;;
44728;SDS011;30457;53.590;9.922;2024-01-30T17:02:36;14.00;;;6.53;;
44728;SDS011;30457;53.590;9.922;2024-01-30T17:07:02;9.45;;;5.82;;
44728;SDS011;30457;53.590;9.922;2024-01-30T17:11:28;8.77;;;5.80;;
44728;SDS011;30457;53.590;9.922;2024-01-30T17:15:54;9.98;;;6.30;;
44728;SDS011;30457;53.590;9.922;2024-01-30T17:20:19;11.57;;;6.60;;
44728;SDS011;30457;53.590;9.922;2024-01-30T17:24:45;7.00;;;5.63;;
44728;SDS011;30457;53.590;9.922;2024-01-30T17:29:11;11.38;;;5.88;;
44728;SDS011;30457;53.590;9.922;2024-01-30T17:33:39;11.30;;;5.97;;
44728;SDS011;30457;53.590;9.922;2024-01-30T17:38:06;9.80;;;6.07;;
44728;SDS011;30457;53.590;9.922;2024-01-30T17:42:32;10.07;;;5.68;;
44728;SDS011;30457;53.590;9.922;2024-01-30T17:46:58;8.70;;;5.50;;
44728;SDS011;30457;53.590;9.922;2024-01-30T17:51:23;8.73;;;6.25;;
44728;SDS011;30457;53.590;9.922;2024-01-30T17:55:49;9.70;;;6.03;;
44728;SDS011;30457;53.590;9.922;2024-01-30T18:00:15;6.82;;;5.32;;
44728;SDS011;30457;53.590;9.922;2024-01-30T18:04:41;13.85;;;5.68;;
44728;SDS011;30457;53.590;9.922;2024-01-30T18:09:06;10.00;;;5.50;;
44728;SDS011;30457;53.590;9.922;2024-01-30T18:13:32;9.40;;;4.47;;
44728;SDS011;30457;53.590;9.922;2024-01-30T18:17:57;5.43;;;4.03;;
44728;SDS011;30457;53.590;9.922;2024-01-30T18:22:23;7.90;;;4.20;;
44728;SDS011;30457;53.590;9.922;2024-01-30T18:26:50;7.03;;;3.90;;
44728;SDS011;30457;53.590;9.922;2024-01-30T18:31:15;6.20;;;3.58;;
44728;SDS011;30457;53.590;9.922;2024-01-30T18:35:41;7.97;;;3.92;;
44728;SDS011;30457;53.590;9.922;2024-01-30T18:40:07;5.75;;;3.85;;
44728;SDS011;30457;53.590;9.922;2024-01-30T18:44:33;7.75;;;3.15;;
44728;SDS011;30457;53.590;9.922;2024-01-30T18:48:59;4.32;;;3.13;;
44728;SDS011;30457;53.590;9.922;2024-01-30T18:53:24;4.10;;;2.63;;
44728;SDS011;30457;53.590;9.922;2024-01-30T18:57:50;5.35;;;2.60;;
44728;SDS011;30457;53.590;9.922;2024-01-30T19:02:15;5.60;;;3.00;;
44728;SDS011;30457;53.590;9.922;2024-01-30T19:06:41;3.13;;;2.72;;
44728;SDS011;30457;53.590;9.922;2024-01-30T19:11:06;8.05;;;2.80;;
44728;SDS011;30457;53.590;9.922;2024-01-30T19:15:41;5.40;;;3.17;;
44728;SDS011;30457;53.590;9.922;2024-01-30T19:20:08;3.40;;;2.63;;
44728;SDS011;30457;53.590;9.922;2024-01-30T19:24:35;5.38;;;3.30;;
44728;SDS011;30457;53.590;9.922;2024-01-30T19:29:00;7.85;;;3.22;;
44728;SDS011;30457;53.590;9.922;2024-01-30T19:33:26;6.40;;;3.38;;
44728;SDS011;30457;53.590;9.922;2024-01-30T19:37:52;3.70;;;3.08;;
44728;SDS011;30457;53.590;9.922;2024-01-30T19:42:18;3.40;;;2.67;;
44728;SDS011;30457;53.590;9.922;2024-01-30T19:46:43;3.47;;;2.10;;
44728;SDS011;30457;53.590;9.922;2024-01-30T19:51:09;3.47;;;1.98;;
44728;SDS011;30457;53.590;9.922;2024-01-30T19:55:34;4.85;;;2.35;;
44728;SDS011;30457;53.590;9.922;2024-01-30T20:00:00;3.08;;;1.75;;
44728;SDS011;30457;53.590;9.922;2024-01-30T20:04:29;4.68;;;1.90;;
44728;SDS011;30457;53.590;9.922;2024-01-30T20:08:55;2.20;;;1.80;;
44728;SDS011;30457;53.590;9.922;2024-01-30T20:13:21;3.00;;;2.22;;
44728;SDS011;30457;53.590;9.922;2024-01-30T20:17:47;2.20;;;1.95;;
44728;SDS011;30457;53.590;9.922;2024-01-30T20:22:13;3.38;;;2.55;;
44728;SDS011;30457;53.590;9.922;2024-01-30T20:26:38;6.55;;;2.75;;
44728;SDS011;30457;53.590;9.922;2024-01-30T20:31:04;4.97;;;2.75;;
44728;SDS011;30457;53.590;9.922;2024-01-30T20:35:30;3.63;;;2.85;;
44728;SDS011;30457;53.590;9.922;2024-01-30T20:39:56;5.43;;;2.65;;
44728;SDS011;30457;53.590;9.922;2024-01-30T20:44:22;2.83;;;2.45;;
44728;SDS011;30457;53.590;9.922;2024-01-30T20:48:47;2.92;;;2.42;;
44728;SDS011;30457;53.590;9.922;2024-01-30T20:53:13;4.53;;;2.50;;
44728;SDS011;30457;53.590;9.922;2024-01-30T20:57:38;3.50;;;2.60;;
44728;SDS011;30457;53.590;9.922;2024-01-30T21:02:04;2.50;;;2.00;;
44728;SDS011;30457;53.590;9.922;2024-01-30T21:06:29;2.90;;;2.42;;
44728;SDS011;30457;53.590;9.922;2024-01-30T21:10:55;3.05;;;2.40;;
44728;SDS011;30457;53.590;9.922;2024-01-30T21:15:21;3.20;;;2.30;;
44728;SDS011;30457;53.590;9.922;2024-01-30T21:19:46;2.15;;;1.90;;
44728;SDS011;30457;53.590;9.922;2024-01-30T21:24:12;1.55;;;1.40;;
44728;SDS011;30457;53.590;9.922;2024-01-30T21:28:37;2.13;;;1.63;;
44728;SDS011;30457;53.590;9.922;2024-01-30T21:33:03;1.50;;;1.38;;
44728;SDS011;30457;53.590;9.922;2024-01-30T21:37:29;1.52;;;1.40;;
44728;SDS011;30457;53.590;9.922;2024-01-30T21:41:54;1.33;;;1.23;;
44728;SDS011;30457;53.590;9.922;2024-01-30T21:46:24;2.15;;;1.25;;
44728;SDS011;30457;53.590;9.922;2024-01-30T21:50:50;1.10;;;1.00;;
44728;SDS011;30457;53.590;9.922;2024-01-30T21:55:16;1.02;;;0.88;;
44728;SDS011;30457;53.590;9.922;2024-01-30T21:59:41;1.05;;;0.95;;
44728;SDS011;30457;53.590;9.922;2024-01-30T22:04:07;1.15;;;0.80;;
44728;SDS011;30457;53.590;9.922;2024-01-30T22:08:32;1.35;;;0.80;;
44728;SDS011;30457;53.590;9.922;2024-01-30T22:12:58;0.77;;;0.70;;
44728;SDS011;30457;53.590;9.922;2024-01-30T22:17:23;0.70;;;0.70;;
44728;SDS011;30457;53.590;9.922;2024-01-30T22:21:49;0.85;;;0.70;;
44728;SDS011;30457;53.590;9.922;2024-01-30T22:26:15;0.88;;;0.70;;
44728;SDS011;30457;53.590;9.922;2024-01-30T22:30:40;0.55;;;0.52;;
44728;SDS011;30457;53.590;9.922;2024-01-30T22:35:06;0.77;;;0.70;;
44728;SDS011;30457;53.590;9.922;2024-01-30T22:39:35;0.80;;;0.80;;
44728;SDS011;30457;53.590;9.922;2024-01-30T22:44:00;1.10;;;0.63;;
44728;SDS011;30457;53.590;9.922;2024-01-30T22:48:26;2.42;;;1.20;;
44728;SDS011;30457;53.590;9.922;2024-01-30T22:52:51;2.20;;;1.17;;
44728;SDS011;30457;53.590;9.922;2024-01-30T22:57:17;3.15;;;0.68;;
44728;SDS011;30457;53.590;9.922;2024-01-30T23:01:45;2.00;;;0.70;;
44728;SDS011;30457;53.590;9.922;2024-01-30T23:06:11;4.30;;;0.85;;
44728;SDS011;30457;53.590;9.922;2024-01-30T23:10:37;1.00;;;0.70;;
44728;SDS011;30457;53.590;9.922;2024-01-30T23:15:03;1.65;;;0.80;;
44728;SDS011;30457;53.590;9.922;2024-01-30T23:19:30;4.78;;;0.77;;
44728;SDS011;30457;53.590;9.922;2024-01-30T23:23:56;5.45;;;0.85;;
44728;SDS011;30457;53.590;9.922;2024-01-30T23:28:23;5.20;;;0.63;;
44728;SDS011;30457;53.590;9.922;2024-01-30T23:32:48;3.03;;;0.80;;
44728;SDS011;30457;53.590;9.922;2024-01-30T23:37:14;3.50;;;1.42;;
44728;SDS011;30457;53.590;9.922;2024-01-30T23:41:39;2.30;;;0.43;;
44728;SDS011;30457;53.590;9.922;2024-01-30T23:46:05;5.45;;;1.42;;
44728;SDS011;30457;53.590;9.922;2024-01-30T23:50:30;2.85;;;1.17;;
44728;SDS011;30457;53.590;9.922;2024-01-30T23:54:56;3.70;;;0.90;;
44728;SDS011;30457;53.590;9.922;2024-01-30T23:59:22;2.55;;;1.05;;
